createdAt,value
2019-05-23T00:01:28.655Z,48.87
2019-05-23T00:04:15.956Z,49.02
2019-05-23T00:06:44.763Z,48.30
2019-05-23T00:09:13.389Z,48.44
2019-05-23T00:12:00.854Z,48.50
2019-05-23T00:14:43.379Z,48.16
2019-05-23T00:17:14.470Z,49.17
2019-05-23T00:19:43.494Z,48.17
2019-05-23T00:22:11.468Z,48.64
2019-05-23T00:24:40.518Z,48.65
2019-05-23T00:27:08.917Z,49.11
2019-05-23T00:29:40.415Z,48.61
2019-05-23T00:32:24.938Z,48.44
2019-05-23T00:35:04.748Z,48.61
2019-05-23T00:37:33.803Z,48.27
2019-05-23T00:40:01.604Z,48.70
2019-05-23T00:42:36.111Z,48.08
2019-05-23T00:45:14.720Z,48.35
2019-05-23T00:47:42.593Z,48.18
2019-05-23T00:50:10.726Z,49.49
2019-05-23T00:52:38.495Z,48.18
2019-05-23T00:55:06.289Z,48.33
2019-05-23T00:57:37.627Z,48.33
2019-05-23T01:00:19.526Z,48.18
2019-05-23T01:02:47.871Z,48.41
2019-05-23T01:05:16.597Z,48.55
2019-05-23T01:07:45.395Z,48.08
2019-05-23T01:10:14.201Z,49.25
2019-05-23T01:12:41.999Z,48.97
2019-05-23T01:15:09.891Z,48.81
2019-05-23T01:17:37.626Z,48.00
2019-05-23T01:20:08.249Z,48.86
2019-05-23T01:22:36.667Z,47.70
2019-05-23T01:25:04.519Z,49.80
2019-05-23T01:27:32.361Z,49.43
2019-05-23T01:30:02.789Z,48.34
2019-05-23T01:32:42.242Z,48.10
2019-05-23T01:35:11.176Z,48.75
2019-05-23T01:37:39.237Z,48.74
2019-05-23T01:40:07.063Z,49.32
2019-05-23T01:42:35.109Z,48.45
2019-05-23T01:45:03.091Z,49.56
2019-05-23T01:47:30.892Z,48.07
2019-05-23T01:49:58.899Z,48.95
2019-05-23T01:52:27.660Z,48.31
2019-05-23T01:54:55.439Z,49.29
2019-05-23T01:57:23.489Z,47.85
2019-05-23T02:00:08.374Z,49.50
2019-05-23T02:02:22.924Z,48.71
2019-05-23T02:04:50.795Z,49.22
2019-05-23T02:07:37.975Z,48.35
2019-05-23T02:10:07.018Z,49.12
2019-05-23T02:12:35.290Z,50.84
2019-05-23T02:15:04.066Z,49.22
2019-05-23T02:17:32.531Z,48.57
2019-05-23T02:20:01.687Z,50.00
2019-05-23T02:22:30.610Z,48.27
2019-05-23T02:24:59.542Z,49.19
2019-05-23T02:27:28.692Z,49.00
2019-05-23T02:29:57.884Z,49.20
2019-05-23T02:32:27.627Z,49.22
2019-05-23T02:35:00.682Z,48.15
2019-05-23T02:37:46.168Z,49.36
2019-05-23T02:40:23.172Z,50.50
2019-05-23T02:43:00.626Z,49.10
2019-05-23T02:45:46.412Z,48.99
2019-05-23T02:48:19.956Z,49.33
2019-05-23T02:50:50.841Z,49.65
2019-05-23T02:53:19.509Z,51.00
2019-05-23T02:55:47.812Z,49.15
2019-05-23T02:58:21.729Z,49.48
2019-05-23T03:00:55.831Z,49.01
2019-05-23T03:03:25.803Z,49.66
2019-05-23T03:05:55.245Z,49.26
2019-05-23T03:08:24.117Z,49.71
2019-05-23T03:11:10.036Z,48.49
2019-05-23T03:13:38.007Z,49.29
2019-05-23T03:16:07.673Z,48.38
2019-05-23T03:18:40.319Z,49.05
2019-05-23T03:21:08.996Z,49.65
2019-05-23T03:23:37.143Z,49.74
2019-05-23T03:26:24.917Z,49.26
2019-05-23T03:29:12.213Z,49.45
2019-05-23T03:31:59.142Z,49.64
2019-05-23T03:34:29.327Z,48.94
2019-05-23T03:36:57.996Z,49.05
2019-05-23T03:39:26.019Z,48.63
2019-05-23T03:41:54.291Z,49.30
2019-05-23T03:44:22.016Z,49.50
2019-05-23T03:47:00.100Z,49.12
2019-05-23T03:49:27.636Z,49.37
2019-05-23T03:51:55.501Z,49.21
2019-05-23T03:54:24.530Z,49.64
2019-05-23T03:56:52.321Z,48.87
2019-05-23T03:59:20.124Z,49.65
2019-05-23T04:01:49.407Z,50.67
2019-05-23T04:04:17.984Z,50.55
2019-05-23T04:06:47.494Z,50.11
2019-05-23T04:09:16.099Z,50.44
2019-05-23T04:11:43.820Z,50.38
2019-05-23T04:14:11.663Z,51.16
2019-05-23T04:16:40.832Z,51.07
2019-05-23T04:19:08.624Z,50.29
2019-05-23T04:21:36.556Z,51.12
2019-05-23T04:24:14.115Z,50.96
2019-05-23T04:26:41.847Z,51.46
2019-05-23T04:29:10.401Z,50.15
2019-05-23T04:31:38.463Z,49.21
2019-05-23T04:34:07.295Z,48.90
2019-05-23T04:36:52.790Z,50.23
2019-05-23T04:39:20.602Z,51.24
2019-05-23T04:41:48.554Z,51.08
2019-05-23T04:44:17.797Z,50.02
2019-05-23T04:46:47.223Z,50.69
2019-05-23T04:49:20.811Z,51.24
2019-05-23T04:51:46.178Z,48.73
2019-05-23T04:54:13.982Z,49.50
2019-05-23T04:56:41.707Z,51.52
2019-05-23T04:59:09.713Z,50.30
2019-05-23T05:01:37.951Z,51.63
2019-05-23T05:04:06.615Z,51.02
2019-05-23T05:06:34.520Z,49.63
2019-05-23T05:09:04.260Z,51.42
2019-05-23T05:11:31.963Z,50.67
2019-05-23T05:13:59.867Z,50.97
2019-05-23T05:16:27.755Z,51.43
2019-05-23T05:18:55.994Z,51.41
2019-05-23T05:21:24.128Z,51.47
2019-05-23T05:23:51.848Z,51.37
2019-05-23T05:26:21.310Z,51.77
2019-05-23T05:28:50.793Z,51.60
2019-05-23T05:31:18.629Z,52.27
2019-05-23T05:33:46.365Z,51.89
2019-05-23T05:36:14.125Z,51.06
2019-05-23T05:38:42.564Z,49.09
2019-05-23T05:41:10.447Z,50.38
2019-05-23T05:43:39.159Z,51.18
2019-05-23T05:46:07.287Z,51.63
2019-05-23T05:48:35.014Z,49.77
2019-05-23T05:51:03.404Z,51.15
2019-05-23T05:53:31.182Z,51.07
2019-05-23T05:55:58.939Z,51.48
2019-05-23T05:58:26.749Z,51.62
2019-05-23T06:00:58.370Z,51.31
2019-05-23T06:03:26.327Z,52.05
2019-05-23T06:06:15.542Z,51.88
2019-05-23T06:08:44.283Z,50.80
2019-05-23T06:11:12.323Z,51.59
2019-05-23T06:13:40.034Z,51.38
2019-05-23T06:16:07.823Z,51.97
2019-05-23T06:18:35.672Z,51.19
2019-05-23T06:21:03.832Z,50.76
2019-05-23T06:23:31.543Z,50.16
2019-05-23T06:25:59.318Z,48.86
2019-05-23T06:28:27.738Z,50.96
2019-05-23T06:30:57.181Z,51.23
2019-05-23T06:33:28.142Z,49.29
2019-05-23T06:35:58.507Z,50.46
2019-05-23T06:38:26.507Z,51.05
2019-05-23T06:40:54.495Z,51.15
2019-05-23T06:43:23.403Z,51.68
2019-05-23T06:45:51.504Z,51.92
2019-05-23T06:48:19.385Z,51.57
2019-05-23T06:50:47.155Z,51.91
2019-05-23T06:53:15.578Z,51.82
2019-05-23T06:55:43.357Z,51.61
2019-05-23T06:58:11.868Z,49.95
2019-05-23T07:00:39.570Z,50.72
2019-05-23T07:03:07.336Z,50.18
2019-05-23T07:05:35.453Z,49.31
2019-05-23T07:08:03.671Z,50.03
2019-05-23T07:10:31.436Z,49.41
2019-05-23T07:13:03.500Z,51.79
2019-05-23T07:15:32.028Z,49.55
2019-05-23T07:18:00.172Z,51.26
2019-05-23T07:20:27.884Z,48.98
2019-05-23T07:22:55.644Z,51.23
2019-05-23T07:25:23.851Z,50.47
2019-05-23T07:27:51.636Z,48.20
2019-05-23T07:30:21.028Z,50.21
2019-05-23T07:32:48.767Z,50.93
2019-05-23T07:35:16.653Z,51.51
2019-05-23T07:37:44.443Z,50.34
2019-05-23T07:40:12.193Z,51.26
2019-05-23T07:42:39.974Z,50.75
2019-05-23T07:45:10.288Z,50.72
2019-05-23T07:47:40.210Z,48.89
2019-05-23T07:50:15.283Z,49.88
2019-05-23T07:52:40.226Z,51.35
2019-05-23T07:55:30.273Z,49.92
2019-05-23T07:57:58.800Z,51.61
2019-05-23T08:00:30.882Z,52.05
2019-05-23T08:02:59.758Z,49.70
2019-05-23T08:05:27.720Z,50.46
2019-05-23T08:07:55.564Z,50.46
2019-05-23T08:10:33.294Z,51.72
2019-05-23T08:12:53.104Z,51.27
2019-05-23T08:15:22.030Z,52.00
2019-05-23T08:17:49.887Z,52.66
2019-05-23T08:20:17.793Z,51.59
2019-05-23T08:22:45.991Z,51.33
2019-05-23T08:25:13.796Z,50.67
2019-05-23T08:27:41.682Z,50.17
2019-05-23T08:30:09.477Z,52.27
2019-05-23T08:32:37.226Z,51.21
2019-05-23T08:35:05.268Z,51.62
2019-05-23T08:37:33.270Z,50.78
2019-05-23T08:40:01.424Z,50.91
2019-05-23T08:42:29.983Z,50.75
2019-05-23T08:44:57.795Z,50.46
2019-05-23T08:47:26.156Z,50.30
2019-05-23T08:49:53.996Z,50.40
2019-05-23T08:52:24.055Z,50.63
2019-05-23T08:54:55.646Z,51.95
2019-05-23T08:57:23.820Z,50.97
2019-05-23T08:59:51.551Z,51.62
2019-05-23T09:02:21.454Z,50.97
2019-05-23T09:05:03.670Z,50.93
2019-05-23T09:07:18.673Z,50.79
2019-05-23T09:09:46.861Z,51.02
2019-05-23T09:12:14.821Z,50.94
2019-05-23T09:14:42.631Z,50.55
2019-05-23T09:17:10.775Z,50.40
2019-05-23T09:19:38.522Z,50.56
2019-05-23T09:22:06.252Z,50.85
2019-05-23T09:24:34.104Z,50.45
2019-05-23T09:27:01.945Z,50.33
2019-05-23T09:29:38.304Z,50.26
2019-05-23T09:32:06.199Z,50.37
2019-05-23T09:34:34.595Z,50.54
2019-05-23T09:37:02.424Z,50.50
2019-05-23T09:39:30.238Z,50.18
2019-05-23T09:41:58.009Z,50.47
2019-05-23T09:44:25.737Z,50.12
2019-05-23T09:46:53.451Z,50.16
2019-05-23T09:49:21.369Z,50.18
2019-05-23T09:51:50.669Z,49.93
2019-05-23T09:54:18.992Z,50.09
2019-05-23T09:56:46.792Z,49.94
2019-05-23T09:59:14.495Z,50.25
2019-05-23T10:01:42.339Z,50.30
2019-05-23T10:04:10.091Z,50.13
2019-05-23T10:06:49.901Z,50.12
2019-05-23T10:09:11.191Z,49.89
2019-05-23T10:11:38.912Z,49.87
2019-05-23T10:14:08.989Z,49.74
2019-05-23T10:16:36.983Z,50.02
2019-05-23T10:19:04.766Z,49.86
2019-05-23T10:21:32.640Z,50.02
2019-05-23T10:24:00.508Z,49.83
2019-05-23T10:26:28.434Z,49.77
2019-05-23T10:28:56.224Z,50.04
2019-05-23T10:31:24.447Z,50.16
2019-05-23T10:33:52.296Z,50.10
2019-05-23T10:36:20.106Z,49.74
2019-05-23T10:38:47.826Z,49.82
2019-05-23T10:41:15.575Z,49.75
2019-05-23T10:43:48.235Z,50.08
2019-05-23T10:46:18.695Z,49.32
2019-05-23T10:48:47.334Z,50.27
2019-05-23T10:51:15.062Z,49.94
2019-05-23T10:53:42.779Z,50.12
2019-05-23T10:56:10.979Z,50.00
2019-05-23T10:58:39.167Z,49.92
2019-05-23T11:01:07.003Z,49.54
2019-05-23T11:03:35.082Z,49.55
2019-05-23T11:06:15.614Z,49.56
2019-05-23T11:08:32.856Z,49.83
2019-05-23T11:11:00.905Z,50.03
2019-05-23T11:13:28.631Z,49.18
2019-05-23T11:15:56.597Z,49.69
2019-05-23T11:18:24.396Z,49.83
2019-05-23T11:20:52.209Z,49.48
2019-05-23T11:23:25.492Z,49.84
2019-05-23T11:25:53.282Z,47.17
2019-05-23T11:28:21.039Z,49.01
2019-05-23T11:30:51.964Z,49.56
2019-05-23T11:33:20.452Z,49.16
2019-05-23T11:35:48.634Z,49.19
2019-05-23T11:38:16.575Z,48.75
2019-05-23T11:40:44.359Z,48.85
2019-05-23T11:43:12.133Z,48.74
2019-05-23T11:45:49.197Z,48.66
2019-05-23T11:48:17.304Z,48.56
2019-05-23T11:50:45.116Z,48.71
2019-05-23T11:53:13.063Z,49.43
2019-05-23T11:55:42.176Z,48.46
2019-05-23T11:58:11.269Z,47.88
2019-05-23T12:00:48.702Z,48.86
2019-05-23T12:03:16.560Z,48.81
2019-05-23T12:05:44.276Z,47.65
2019-05-23T12:08:12.094Z,48.51
2019-05-23T12:10:39.842Z,48.12
2019-05-23T12:13:08.084Z,48.12
2019-05-23T12:15:37.703Z,48.79
2019-05-23T12:18:05.449Z,48.56
2019-05-23T12:20:33.243Z,48.43
2019-05-23T12:23:00.982Z,48.25
2019-05-23T12:25:30.453Z,47.94
2019-05-23T12:27:58.308Z,47.29
2019-05-23T12:30:26.212Z,47.50
2019-05-23T12:33:01.841Z,47.80
2019-05-23T12:35:29.137Z,47.46
2019-05-23T12:37:56.930Z,47.81
2019-05-23T12:40:24.666Z,47.31
2019-05-23T12:42:52.460Z,47.66
2019-05-23T12:45:20.575Z,47.64
2019-05-23T12:47:56.636Z,47.79
2019-05-23T12:50:27.422Z,46.68
2019-05-23T12:52:55.196Z,46.51
2019-05-23T12:55:22.975Z,46.61
2019-05-23T12:57:53.625Z,46.71
2019-05-23T13:00:35.161Z,46.12
2019-05-23T13:03:03.865Z,47.01
2019-05-23T13:05:31.787Z,46.34
2019-05-23T13:08:05.922Z,47.11
2019-05-23T13:10:51.523Z,46.49
2019-05-23T13:13:26.943Z,46.24
2019-05-23T13:15:54.747Z,46.34
2019-05-23T13:18:25.195Z,46.59
2019-05-23T13:21:00.446Z,46.03
2019-05-23T13:23:41.657Z,45.77
2019-05-23T13:26:09.904Z,45.49
2019-05-23T13:28:37.817Z,46.83
2019-05-23T13:31:05.546Z,46.64
2019-05-23T13:33:33.437Z,45.99
2019-05-23T13:36:01.155Z,45.73
2019-05-23T13:38:28.888Z,45.68
2019-05-23T13:40:56.627Z,46.21
2019-05-23T13:43:24.510Z,46.12
2019-05-23T13:45:52.235Z,45.79
2019-05-23T13:48:30.695Z,44.93
2019-05-23T13:50:52.796Z,45.56
2019-05-23T13:53:20.794Z,46.31
2019-05-23T13:55:48.590Z,46.08
2019-05-23T13:58:16.512Z,45.71
2019-05-23T14:00:44.581Z,45.64
2019-05-23T14:03:12.485Z,45.84
2019-05-23T14:05:40.197Z,44.77
2019-05-23T14:08:12.883Z,44.92
2019-05-23T14:10:44.023Z,45.04
2019-05-23T14:13:09.364Z,44.49
2019-05-23T14:15:40.822Z,45.34
2019-05-23T14:18:31.552Z,44.34
2019-05-23T14:20:59.281Z,44.24
2019-05-23T14:23:30.454Z,44.52
2019-05-23T14:25:58.560Z,44.38
2019-05-23T14:28:26.486Z,44.17
2019-05-23T14:31:13.318Z,44.23
2019-05-23T14:33:56.853Z,44.42
2019-05-23T14:36:45.280Z,44.37
2019-05-23T14:39:19.504Z,45.24
2019-05-23T14:41:53.087Z,44.46
2019-05-23T14:44:20.885Z,44.51
2019-05-23T14:47:02.117Z,44.57
2019-05-23T14:49:38.826Z,44.67
2019-05-23T14:52:28.773Z,44.45
2019-05-23T14:55:00.456Z,44.22
2019-05-23T14:57:28.336Z,44.40
2019-05-23T14:59:56.149Z,45.11
2019-05-23T15:02:24.598Z,45.44
2019-05-23T15:04:52.346Z,44.35
2019-05-23T15:07:20.539Z,44.81
2019-05-23T15:09:51.621Z,44.85
2019-05-23T15:12:28.143Z,44.72
2019-05-23T15:14:55.867Z,44.25
2019-05-23T15:17:23.656Z,44.59
2019-05-23T15:19:51.440Z,44.18
2019-05-23T15:22:19.155Z,44.51
2019-05-23T15:24:46.923Z,45.02
2019-05-23T15:27:14.706Z,44.63
2019-05-23T15:29:42.442Z,44.56
2019-05-23T15:32:10.243Z,44.76
2019-05-23T15:34:37.948Z,44.82
2019-05-23T15:37:05.691Z,44.70
2019-05-23T15:39:34.003Z,44.69
2019-05-23T15:42:01.820Z,44.69
2019-05-23T15:44:30.583Z,44.33
2019-05-23T15:47:17.364Z,44.63
2019-05-23T15:49:47.074Z,44.54
2019-05-23T15:52:33.071Z,44.11
2019-05-23T15:55:05.327Z,44.02
2019-05-23T15:57:49.303Z,44.00
2019-05-23T16:00:23.968Z,44.10
2019-05-23T16:02:57.196Z,44.03
2019-05-23T16:05:24.928Z,43.43
2019-05-23T16:07:53.018Z,45.13
2019-05-23T16:10:21.991Z,43.83
2019-05-23T16:12:49.721Z,44.15
2019-05-23T16:15:17.728Z,44.54
2019-05-23T16:17:45.490Z,43.34
2019-05-23T16:20:13.235Z,43.95
2019-05-23T16:22:41.511Z,43.90
2019-05-23T16:25:10.346Z,44.46
2019-05-23T16:27:38.347Z,44.45
2019-05-23T16:30:06.311Z,44.16
2019-05-23T16:32:46.553Z,43.82
2019-05-23T16:35:05.074Z,43.79
2019-05-23T16:37:32.970Z,43.81
2019-05-23T16:40:00.762Z,43.84
2019-05-23T16:42:28.693Z,43.79
2019-05-23T16:44:56.504Z,44.38
2019-05-23T16:47:24.371Z,43.75
2019-05-23T16:49:52.099Z,43.56
2019-05-23T16:52:19.871Z,43.61
2019-05-23T16:54:49.520Z,43.96
2019-05-23T16:57:42.446Z,42.37
2019-05-23T17:00:28.150Z,42.63
2019-05-23T17:03:24.144Z,42.80
2019-05-23T17:06:00.952Z,43.61
2019-05-23T17:09:04.311Z,43.48
2019-05-23T17:11:37.700Z,42.28
2019-05-23T17:14:17.096Z,43.26
2019-05-23T17:16:50.364Z,43.23
2019-05-23T17:19:30.520Z,41.84
2019-05-23T17:22:06.512Z,40.87
2019-05-23T17:24:53.361Z,43.07
2019-05-23T17:27:38.302Z,43.10
2019-05-23T17:30:36.075Z,40.71
2019-05-23T17:33:05.311Z,43.14
2019-05-23T17:35:33.065Z,39.55
2019-05-23T17:38:00.818Z,42.47
2019-05-23T17:40:28.998Z,43.01
2019-05-23T17:42:56.789Z,41.42
2019-05-23T17:45:24.612Z,40.85
2019-05-23T17:47:53.231Z,42.51
2019-05-23T17:50:21.075Z,42.33
2019-05-23T17:52:50.287Z,43.25
2019-05-23T17:55:19.821Z,40.96
2019-05-23T17:57:47.620Z,41.70
2019-05-23T18:00:18.112Z,42.94
2019-05-23T18:02:46.008Z,42.25
2019-05-23T18:05:14.291Z,42.70
2019-05-23T18:07:42.594Z,39.32
2019-05-23T18:10:11.173Z,40.90
2019-05-23T18:12:38.927Z,38.86
2019-05-23T18:15:08.645Z,41.94
2019-05-23T18:17:36.934Z,42.40
2019-05-23T18:20:05.283Z,39.37
2019-05-23T18:22:33.591Z,41.18
2019-05-23T18:25:01.713Z,41.89
2019-05-23T18:27:30.022Z,42.19
2019-05-23T18:29:58.531Z,41.64
2019-05-23T18:32:32.619Z,41.92
2019-05-23T18:35:00.413Z,40.98
2019-05-23T18:37:28.331Z,42.11
2019-05-23T18:39:56.140Z,42.09
2019-05-23T18:42:24.203Z,39.68
2019-05-23T18:44:52.729Z,38.95
2019-05-23T18:47:26.355Z,38.69
2019-05-23T18:49:55.414Z,38.96
2019-05-23T18:52:23.140Z,39.11
2019-05-23T18:54:51.895Z,40.60
2019-05-23T18:57:20.038Z,40.57
2019-05-23T18:59:47.804Z,40.78
2019-05-23T19:02:15.550Z,40.54
2019-05-23T19:04:43.360Z,41.29
2019-05-23T19:07:13.905Z,40.69
2019-05-23T19:09:44.875Z,40.54
2019-05-23T19:12:12.711Z,40.46
2019-05-23T19:14:40.745Z,40.69
2019-05-23T19:17:08.523Z,39.92
2019-05-23T19:19:36.348Z,40.04
2019-05-23T19:22:05.010Z,40.30
2019-05-23T19:24:33.539Z,40.34
2019-05-23T19:27:01.390Z,40.61
2019-05-23T19:29:29.191Z,40.52
2019-05-23T19:31:57.319Z,41.17
2019-05-23T19:34:25.435Z,41.15
2019-05-23T19:36:53.464Z,41.27
2019-05-23T19:39:22.268Z,40.33
2019-05-23T19:41:49.983Z,41.17
2019-05-23T19:44:17.755Z,40.76
2019-05-23T19:46:51.268Z,40.88
2019-05-23T19:49:17.682Z,40.97
2019-05-23T19:51:45.485Z,41.11
2019-05-23T19:54:13.215Z,41.00
2019-05-23T19:56:40.927Z,41.04
2019-05-23T19:59:08.674Z,40.64
2019-05-23T20:01:58.365Z,40.47
2019-05-23T20:04:31.069Z,40.60
2019-05-23T20:06:57.243Z,40.50
2019-05-23T20:09:26.736Z,40.76
2019-05-23T20:11:56.462Z,40.20
2019-05-23T20:14:24.608Z,39.97
2019-05-23T20:16:55.487Z,40.52
2019-05-23T20:19:23.242Z,40.93
2019-05-23T20:21:51.206Z,40.75
2019-05-23T20:24:18.959Z,40.24
2019-05-23T20:26:46.714Z,39.94
2019-05-23T20:29:15.601Z,40.35
2019-05-23T20:31:43.408Z,40.48
2019-05-23T20:34:11.268Z,40.68
2019-05-23T20:36:39.028Z,40.46
2019-05-23T20:39:06.905Z,40.77
2019-05-23T20:41:35.158Z,40.66
2019-05-23T20:44:02.919Z,40.31
2019-05-23T20:46:30.712Z,40.32
2019-05-23T20:48:58.422Z,40.04
2019-05-23T20:51:33.097Z,40.00
2019-05-23T20:54:00.938Z,39.88
2019-05-23T20:56:29.450Z,40.69
2019-05-23T20:58:57.199Z,40.44
2019-05-23T21:01:28.613Z,40.25
2019-05-23T21:03:57.997Z,40.38
2019-05-23T21:06:25.727Z,41.09
2019-05-23T21:08:53.465Z,41.71
2019-05-23T21:11:22.085Z,41.02
2019-05-23T21:13:49.803Z,40.70
2019-05-23T21:16:17.523Z,40.54
2019-05-23T21:18:48.729Z,41.04
2019-05-23T21:21:14.704Z,40.95
2019-05-23T21:23:42.747Z,41.05
2019-05-23T21:26:10.497Z,41.23
2019-05-23T21:28:40.837Z,41.24
2019-05-23T21:31:14.058Z,40.26
2019-05-23T21:33:41.965Z,40.77
2019-05-23T21:36:09.910Z,40.98
2019-05-23T21:38:38.857Z,40.20
2019-05-23T21:41:19.730Z,41.17
2019-05-23T21:43:48.171Z,41.54
2019-05-23T21:46:16.306Z,40.92
2019-05-23T21:48:44.146Z,40.84
2019-05-23T21:51:11.875Z,41.21
2019-05-23T21:53:39.639Z,41.23
2019-05-23T21:56:07.405Z,41.29
2019-05-23T21:58:45.836Z,41.44
2019-05-23T22:01:32.024Z,40.95
2019-05-23T22:04:19.851Z,41.56
2019-05-23T22:06:55.304Z,41.77
2019-05-23T22:09:27.413Z,41.30
2019-05-23T22:11:55.457Z,41.70
2019-05-23T22:14:23.183Z,42.24
2019-05-23T22:16:51.137Z,42.29
2019-05-23T22:19:21.268Z,41.11
2019-05-23T22:21:49.781Z,42.91
2019-05-23T22:24:18.507Z,42.05
2019-05-23T22:26:47.313Z,41.60
2019-05-23T22:29:16.886Z,43.22
2019-05-23T22:31:46.411Z,42.93
2019-05-23T22:34:47.491Z,42.55
2019-05-23T22:37:20.598Z,42.28
2019-05-23T22:39:48.448Z,42.44
2019-05-23T22:42:16.723Z,41.84
2019-05-23T22:44:44.463Z,41.60
2019-05-23T22:47:12.227Z,42.09
2019-05-23T22:49:39.963Z,42.86
2019-05-23T22:52:07.690Z,42.55
2019-05-23T22:54:35.494Z,41.81
2019-05-23T22:57:03.231Z,41.93
2019-05-23T22:59:30.996Z,42.07
2019-05-23T23:01:58.708Z,42.01
2019-05-23T23:04:26.466Z,42.24
2019-05-23T23:07:02.399Z,41.85
2019-05-23T23:09:30.149Z,42.73
2019-05-23T23:11:57.971Z,42.63
2019-05-23T23:14:25.692Z,41.82
2019-05-23T23:16:53.465Z,42.37
2019-05-23T23:19:21.292Z,41.59
2019-05-23T23:21:49.045Z,42.07
2019-05-23T23:24:16.831Z,41.82
2019-05-23T23:26:44.561Z,42.33
2019-05-23T23:29:12.425Z,41.64
2019-05-23T23:31:40.133Z,41.99
2019-05-23T23:34:07.888Z,43.66
2019-05-23T23:36:35.608Z,42.71
2019-05-23T23:39:04.321Z,42.57
2019-05-23T23:41:32.055Z,41.52
2019-05-23T23:44:06.597Z,43.52
2019-05-23T23:46:49.529Z,43.07
2019-05-23T23:49:35.328Z,42.45
2019-05-23T23:52:20.744Z,42.29
2019-05-23T23:55:07.534Z,42.88
2019-05-23T23:57:53.404Z,42.75
